sensor_id;sensor_type;location;lat;lon;timestamp;pressure;altitude;pressure_sealevel;temperature;humidity
11038;BME280;5572;49.540;11.932;2023-05-29T00:02:24;96697.47;;;10.35;100.00
11038;BME280;5572;49.540;11.932;2023-05-29T00:04:51;96692.59;;;10.37;100.00
11038;BME280;5572;49.540;11.932;2023-05-29T00:07:17;96690.19;;;10.36;100.00
11038;BME280;5572;49.540;11.932;2023-05-29T00:09:43;96684.59;;;10.56;100.00
11038;BME280;5572;49.540;11.932;2023-05-29T00:12:11;96699.19;;;10.27;100.00
11038;BME280;5572;49.540;11.932;2023-05-29T00:14:38;96694.50;;;10.37;100.00
11038;BME280;5572;49.540;11.932;2023-05-29T00:17:05;96691.44;;;10.43;100.00
11038;BME280;5572;49.540;11.932;2023-05-29T00:19:32;96696.72;;;10.30;100.00
11038;BME280;5572;49.540;11.932;2023-05-29T00:21:58;96706.56;;;10.16;100.00
11038;BME280;5572;49.540;11.932;2023-05-29T00:24:25;96698.38;;;10.26;100.00
11038;BME280;5572;49.540;11.932;2023-05-29T00:26:51;96689.78;;;10.19;100.00
11038;BME280;5572;49.540;11.932;2023-05-29T00:29:19;96681.25;;;10.07;100.00
11038;BME280;5572;49.540;11.932;2023-05-29T00:31:47;96685.97;;;9.87;100.00
11038;BME280;5572;49.540;11.932;2023-05-29T00:34:13;96678.34;;;9.94;100.00
11038;BME280;5572;49.540;11.932;2023-05-29T00:36:40;96680.75;;;10.05;100.00
11038;BME280;5572;49.540;11.932;2023-05-29T00:39:06;96673.34;;;10.16;100.00
11038;BME280;5572;49.540;11.932;2023-05-29T00:41:34;96680.94;;;9.75;100.00
11038;BME280;5572;49.540;11.932;2023-05-29T00:44:00;96676.03;;;9.82;100.00
11038;BME280;5572;49.540;11.932;2023-05-29T00:46:29;96673.63;;;9.76;100.00
11038;BME280;5572;49.540;11.932;2023-05-29T00:48:57;96669.38;;;9.70;100.00
11038;BME280;5572;49.540;11.932;2023-05-29T00:51:25;96673.50;;;9.57;100.00
11038;BME280;5572;49.540;11.932;2023-05-29T00:53:53;96660.22;;;9.66;100.00
11038;BME280;5572;49.540;11.932;2023-05-29T00:56:20;96664.13;;;9.45;100.00
11038;BME280;5572;49.540;11.932;2023-05-29T00:58:48;96661.94;;;9.52;100.00
11038;BME280;5572;49.540;11.932;2023-05-29T01:01:16;96631.81;;;9.73;100.00
11038;BME280;5572;49.540;11.932;2023-05-29T01:03:44;96642.22;;;9.51;100.00
11038;BME280;5572;49.540;11.932;2023-05-29T01:06:11;96643.69;;;9.34;100.00
11038;BME280;5572;49.540;11.932;2023-05-29T01:08:37;96641.22;;;9.42;100.00
11038;BME280;5572;49.540;11.932;2023-05-29T01:11:08;96639.13;;;9.30;100.00
11038;BME280;5572;49.540;11.932;2023-05-29T01:13:41;96626.97;;;9.37;100.00
11038;BME280;5572;49.540;11.932;2023-05-29T01:16:13;96615.78;;;9.53;100.00
11038;BME280;5572;49.540;11.932;2023-05-29T01:18:50;96633.47;;;9.31;100.00
11038;BME280;5572;49.540;11.932;2023-05-29T01:21:23;96628.63;;;9.33;100.00
11038;BME280;5572;49.540;11.932;2023-05-29T01:24:02;96625.09;;;9.33;100.00
11038;BME280;5572;49.540;11.932;2023-05-29T01:26:46;96626.28;;;9.17;100.00
11038;BME280;5572;49.540;11.932;2023-05-29T01:29:15;96631.78;;;8.97;100.00
11038;BME280;5572;49.540;11.932;2023-05-29T01:31:45;96630.53;;;8.79;100.00
11038;BME280;5572;49.540;11.932;2023-05-29T01:34:12;96625.91;;;8.80;100.00
11038;BME280;5572;49.540;11.932;2023-05-29T01:36:39;96608.84;;;8.99;100.00
11038;BME280;5572;49.540;11.932;2023-05-29T01:39:05;96602.13;;;8.97;100.00
11038;BME280;5572;49.540;11.932;2023-05-29T01:41:34;96614.09;;;8.71;100.00
11038;BME280;5572;49.540;11.932;2023-05-29T01:44:04;96612.78;;;8.68;100.00
11038;BME280;5572;49.540;11.932;2023-05-29T01:46:33;96609.28;;;8.63;100.00
11038;BME280;5572;49.540;11.932;2023-05-29T01:49:00;96602.44;;;8.85;100.00
11038;BME280;5572;49.540;11.932;2023-05-29T01:51:27;96587.59;;;8.93;100.00
11038;BME280;5572;49.540;11.932;2023-05-29T01:53:54;96595.19;;;8.81;100.00
11038;BME280;5572;49.540;11.932;2023-05-29T01:56:21;96592.19;;;8.87;100.00
11038;BME280;5572;49.540;11.932;2023-05-29T01:58:50;96572.78;;;8.90;100.00
11038;BME280;5572;49.540;11.932;2023-05-29T02:01:17;96590.47;;;8.58;100.00
11038;BME280;5572;49.540;11.932;2023-05-29T02:03:43;96589.94;;;8.51;100.00
11038;BME280;5572;49.540;11.932;2023-05-29T02:06:10;96588.91;;;8.47;100.00
11038;BME280;5572;49.540;11.932;2023-05-29T02:08:36;96567.09;;;8.97;100.00
11038;BME280;5572;49.540;11.932;2023-05-29T02:11:03;96583.44;;;8.62;100.00
11038;BME280;5572;49.540;11.932;2023-05-29T02:13:29;96595.16;;;8.33;100.00
11038;BME280;5572;49.540;11.932;2023-05-29T02:15:57;96591.66;;;8.27;100.00
11038;BME280;5572;49.540;11.932;2023-05-29T02:18:24;96586.81;;;8.24;100.00
11038;BME280;5572;49.540;11.932;2023-05-29T02:20:50;96590.00;;;8.31;100.00
11038;BME280;5572;49.540;11.932;2023-05-29T02:23:17;96586.56;;;8.16;100.00
11038;BME280;5572;49.540;11.932;2023-05-29T02:25:45;96574.13;;;8.25;100.00
11038;BME280;5572;49.540;11.932;2023-05-29T02:28:11;96582.22;;;8.30;100.00
11038;BME280;5572;49.540;11.932;2023-05-29T02:30:38;96570.91;;;8.28;100.00
11038;BME280;5572;49.540;11.932;2023-05-29T02:33:06;96551.53;;;8.26;100.00
11038;BME280;5572;49.540;11.932;2023-05-29T02:35:33;96536.19;;;8.21;100.00
11038;BME280;5572;49.540;11.932;2023-05-29T02:38:00;96539.72;;;8.17;100.00
11038;BME280;5572;49.540;11.932;2023-05-29T02:40:27;96533.78;;;8.05;100.00
11038;BME280;5572;49.540;11.932;2023-05-29T02:42:53;96519.81;;;8.03;100.00
11038;BME280;5572;49.540;11.932;2023-05-29T02:45:20;96516.34;;;7.92;100.00
11038;BME280;5572;49.540;11.932;2023-05-29T02:47:46;96499.41;;;7.92;100.00
11038;BME280;5572;49.540;11.932;2023-05-29T02:50:14;96495.59;;;7.98;100.00
11038;BME280;5572;49.540;11.932;2023-05-29T02:52:40;96488.38;;;7.83;100.00
11038;BME280;5572;49.540;11.932;2023-05-29T02:55:07;96477.31;;;8.00;100.00
11038;BME280;5572;49.540;11.932;2023-05-29T02:57:34;96467.06;;;8.02;100.00
11038;BME280;5572;49.540;11.932;2023-05-29T03:00:00;96461.97;;;7.95;100.00
11038;BME280;5572;49.540;11.932;2023-05-29T03:02:27;96459.63;;;7.74;100.00
11038;BME280;5572;49.540;11.932;2023-05-29T03:04:53;96448.56;;;7.85;100.00
11038;BME280;5572;49.540;11.932;2023-05-29T03:07:21;96452.63;;;7.78;100.00
11038;BME280;5572;49.540;11.932;2023-05-29T03:09:48;96447.81;;;7.70;100.00
11038;BME280;5572;49.540;11.932;2023-05-29T03:12:15;96442.16;;;7.62;100.00
11038;BME280;5572;49.540;11.932;2023-05-29T03:14:44;96427.06;;;7.75;100.00
11038;BME280;5572;49.540;11.932;2023-05-29T03:17:10;96417.09;;;7.81;100.00
11038;BME280;5572;49.540;11.932;2023-05-29T03:19:37;96417.41;;;7.74;100.00
11038;BME280;5572;49.540;11.932;2023-05-29T03:22:04;96424.41;;;7.66;100.00
11038;BME280;5572;49.540;11.932;2023-05-29T03:24:32;96425.25;;;7.56;100.00
11038;BME280;5572;49.540;11.932;2023-05-29T03:27:00;96427.44;;;7.49;100.00
11038;BME280;5572;49.540;11.932;2023-05-29T03:29:28;96419.31;;;7.59;100.00
11038;BME280;5572;49.540;11.932;2023-05-29T03:31:55;96391.31;;;7.70;100.00
11038;BME280;5572;49.540;11.932;2023-05-29T03:34:21;96391.22;;;7.85;100.00
11038;BME280;5572;49.540;11.932;2023-05-29T03:36:48;96392.63;;;7.77;100.00
11038;BME280;5572;49.540;11.932;2023-05-29T03:39:14;96379.94;;;7.88;100.00
11038;BME280;5572;49.540;11.932;2023-05-29T03:41:42;96389.13;;;7.82;100.00
11038;BME280;5572;49.540;11.932;2023-05-29T03:44:09;96389.38;;;7.80;100.00
11038;BME280;5572;49.540;11.932;2023-05-29T03:46:35;96376.72;;;7.86;100.00
11038;BME280;5572;49.540;11.932;2023-05-29T03:49:02;96379.38;;;7.91;100.00
11038;BME280;5572;49.540;11.932;2023-05-29T03:51:28;96369.41;;;7.96;100.00
11038;BME280;5572;49.540;11.932;2023-05-29T03:53:56;96375.41;;;7.78;100.00
11038;BME280;5572;49.540;11.932;2023-05-29T03:56:22;96348.88;;;8.15;100.00
11038;BME280;5572;49.540;11.932;2023-05-29T03:58:50;96341.81;;;8.24;100.00
11038;BME280;5572;49.540;11.932;2023-05-29T04:01:16;96341.13;;;8.42;100.00
11038;BME280;5572;49.540;11.932;2023-05-29T04:03:43;96340.34;;;8.42;100.00
11038;BME280;5572;49.540;11.932;2023-05-29T04:06:10;96349.34;;;8.27;100.00
11038;BME280;5572;49.540;11.932;2023-05-29T04:08:37;96347.97;;;8.25;100.00
11038;BME280;5572;49.540;11.932;2023-05-29T04:11:03;96349.03;;;8.29;100.00
11038;BME280;5572;49.540;11.932;2023-05-29T04:13:30;96343.34;;;8.35;100.00
11038;BME280;5572;49.540;11.932;2023-05-29T04:15:58;96342.09;;;8.56;100.00
11038;BME280;5572;49.540;11.932;2023-05-29T04:18:24;96344.03;;;8.51;100.00
11038;BME280;5572;49.540;11.932;2023-05-29T04:20:51;96345.81;;;8.60;100.00
11038;BME280;5572;49.540;11.932;2023-05-29T04:23:18;96343.38;;;8.63;100.00
11038;BME280;5572;49.540;11.932;2023-05-29T04:25:45;96340.69;;;8.63;100.00
11038;BME280;5572;49.540;11.932;2023-05-29T04:28:12;96334.41;;;8.73;100.00
11038;BME280;5572;49.540;11.932;2023-05-29T04:30:38;96329.19;;;9.10;100.00
11038;BME280;5572;49.540;11.932;2023-05-29T04:33:08;96337.00;;;9.11;100.00
11038;BME280;5572;49.540;11.932;2023-05-29T04:35:37;96343.81;;;9.04;100.00
11038;BME280;5572;49.540;11.932;2023-05-29T04:38:04;96337.59;;;9.32;100.00
11038;BME280;5572;49.540;11.932;2023-05-29T04:40:30;96334.88;;;9.55;100.00
11038;BME280;5572;49.540;11.932;2023-05-29T04:42:58;96321.22;;;11.25;100.00
11038;BME280;5572;49.540;11.932;2023-05-29T04:45:27;96347.81;;;12.39;100.00
11038;BME280;5572;49.540;11.932;2023-05-29T04:47:54;96353.47;;;13.08;100.00
11038;BME280;5572;49.540;11.932;2023-05-29T04:50:22;96395.84;;;12.96;100.00
11038;BME280;5572;49.540;11.932;2023-05-29T04:52:50;96422.00;;;13.36;100.00
11038;BME280;5572;49.540;11.932;2023-05-29T04:55:16;96443.13;;;13.69;100.00
11038;BME280;5572;49.540;11.932;2023-05-29T04:57:42;96453.72;;;14.09;100.00
11038;BME280;5572;49.540;11.932;2023-05-29T05:00:10;96451.88;;;14.99;100.00
11038;BME280;5572;49.540;11.932;2023-05-29T05:02:40;96436.03;;;15.44;100.00
11038;BME280;5572;49.540;11.932;2023-05-29T05:05:07;96446.47;;;15.33;100.00
11038;BME280;5572;49.540;11.932;2023-05-29T05:07:35;96440.47;;;15.73;100.00
11038;BME280;5572;49.540;11.932;2023-05-29T05:10:01;96478.03;;;16.59;100.00
11038;BME280;5572;49.540;11.932;2023-05-29T05:12:28;96491.25;;;17.07;100.00
11038;BME280;5572;49.540;11.932;2023-05-29T05:14:55;96513.47;;;16.97;100.00
11038;BME280;5572;49.540;11.932;2023-05-29T05:17:22;96478.56;;;17.31;100.00
11038;BME280;5572;49.540;11.932;2023-05-29T05:19:48;96508.75;;;17.34;100.00
11038;BME280;5572;49.540;11.932;2023-05-29T05:22:15;96569.19;;;17.33;100.00
11038;BME280;5572;49.540;11.932;2023-05-29T05:24:43;96609.81;;;17.63;100.00
11038;BME280;5572;49.540;11.932;2023-05-29T05:27:09;96621.56;;;18.25;100.00
11038;BME280;5572;49.540;11.932;2023-05-29T05:29:36;96622.28;;;18.78;100.00
11038;BME280;5572;49.540;11.932;2023-05-29T05:32:02;96626.25;;;18.57;100.00
11038;BME280;5572;49.540;11.932;2023-05-29T05:34:29;96631.31;;;18.79;100.00
11038;BME280;5572;49.540;11.932;2023-05-29T05:36:55;96628.50;;;18.99;100.00
11038;BME280;5572;49.540;11.932;2023-05-29T05:39:22;96587.84;;;20.12;100.00
11038;BME280;5572;49.540;11.932;2023-05-29T05:41:50;96611.31;;;19.46;100.00
11038;BME280;5572;49.540;11.932;2023-05-29T05:44:16;96613.72;;;19.36;100.00
11038;BME280;5572;49.540;11.932;2023-05-29T05:46:42;96580.66;;;20.07;100.00
11038;BME280;5572;49.540;11.932;2023-05-29T05:49:10;96563.75;;;20.48;100.00
11038;BME280;5572;49.540;11.932;2023-05-29T05:51:36;96587.66;;;19.54;100.00
11038;BME280;5572;49.540;11.932;2023-05-29T05:54:03;96560.94;;;19.90;100.00
11038;BME280;5572;49.540;11.932;2023-05-29T05:56:29;96504.19;;;20.21;100.00
11038;BME280;5572;49.540;11.932;2023-05-29T05:58:57;96527.25;;;19.14;100.00
11038;BME280;5572;49.540;11.932;2023-05-29T06:01:24;96520.59;;;18.92;100.00
11038;BME280;5572;49.540;11.932;2023-05-29T06:03:51;96439.94;;;20.84;100.00
11038;BME280;5572;49.540;11.932;2023-05-29T06:06:17;96315.59;;;21.88;100.00
11038;BME280;5572;49.540;11.932;2023-05-29T06:08:44;96223.72;;;21.29;100.00
11038;BME280;5572;49.540;11.932;2023-05-29T06:11:10;96147.84;;;21.73;100.00
11038;BME280;5572;49.540;11.932;2023-05-29T06:13:37;96190.28;;;21.27;100.00
11038;BME280;5572;49.540;11.932;2023-05-29T06:16:05;96064.56;;;22.35;100.00
11038;BME280;5572;49.540;11.932;2023-05-29T06:18:32;96090.28;;;21.87;100.00
11038;BME280;5572;49.540;11.932;2023-05-29T06:20:59;95989.91;;;22.83;100.00
11038;BME280;5572;49.540;11.932;2023-05-29T06:23:26;95896.47;;;22.71;100.00
11038;BME280;5572;49.540;11.932;2023-05-29T06:25:53;95908.84;;;22.91;100.00
11038;BME280;5572;49.540;11.932;2023-05-29T06:28:19;95920.06;;;22.65;100.00
11038;BME280;5572;49.540;11.932;2023-05-29T06:30:46;95936.44;;;22.11;100.00
11038;BME280;5572;49.540;11.932;2023-05-29T06:33:14;95914.19;;;22.30;100.00
11038;BME280;5572;49.540;11.932;2023-05-29T06:35:41;95866.66;;;22.87;100.00
11038;BME280;5572;49.540;11.932;2023-05-29T06:38:07;95851.66;;;22.31;100.00
11038;BME280;5572;49.540;11.932;2023-05-29T06:40:34;95882.41;;;22.36;100.00
11038;BME280;5572;49.540;11.932;2023-05-29T06:43:01;95838.78;;;22.42;100.00
11038;BME280;5572;49.540;11.932;2023-05-29T06:47:54;96033.31;;;21.62;100.00
11038;BME280;5572;49.540;11.932;2023-05-29T06:50:22;96187.47;;;19.61;100.00
11038;BME280;5572;49.540;11.932;2023-05-29T06:52:48;96152.78;;;19.53;100.00
11038;BME280;5572;49.540;11.932;2023-05-29T06:55:15;96043.56;;;20.72;100.00
11038;BME280;5572;49.540;11.932;2023-05-29T06:57:42;96185.81;;;20.06;100.00
11038;BME280;5572;49.540;11.932;2023-05-29T07:00:09;96086.25;;;20.66;100.00
11038;BME280;5572;49.540;11.932;2023-05-29T07:02:36;96251.25;;;20.38;100.00
11038;BME280;5572;49.540;11.932;2023-05-29T07:05:03;96202.25;;;20.21;100.00
11038;BME280;5572;49.540;11.932;2023-05-29T07:07:31;96217.44;;;19.38;100.00
11038;BME280;5572;49.540;11.932;2023-05-29T07:09:58;96151.03;;;20.48;100.00
11038;BME280;5572;49.540;11.932;2023-05-29T07:12:24;96224.38;;;20.13;100.00
11038;BME280;5572;49.540;11.932;2023-05-29T07:14:51;96122.56;;;20.97;100.00
11038;BME280;5572;49.540;11.932;2023-05-29T07:17:17;96094.59;;;20.50;100.00
11038;BME280;5572;49.540;11.932;2023-05-29T07:19:43;96129.34;;;20.81;100.00
11038;BME280;5572;49.540;11.932;2023-05-29T07:22:10;96035.28;;;21.13;100.00
11038;BME280;5572;49.540;11.932;2023-05-29T07:24:38;96078.59;;;21.19;100.00
11038;BME280;5572;49.540;11.932;2023-05-29T07:27:04;96120.31;;;21.47;100.00
11038;BME280;5572;49.540;11.932;2023-05-29T07:29:32;96141.78;;;20.56;100.00
11038;BME280;5572;49.540;11.932;2023-05-29T07:31:58;96176.97;;;20.69;100.00
11038;BME280;5572;49.540;11.932;2023-05-29T07:34:25;96117.66;;;20.27;100.00
11038;BME280;5572;49.540;11.932;2023-05-29T07:36:59;96214.63;;;19.50;100.00
11038;BME280;5572;49.540;11.932;2023-05-29T07:39:26;96141.88;;;21.67;100.00
11038;BME280;5572;49.540;11.932;2023-05-29T07:41:54;96083.50;;;20.84;100.00
11038;BME280;5572;49.540;11.932;2023-05-29T07:44:21;96060.31;;;21.82;100.00
11038;BME280;5572;49.540;11.932;2023-05-29T07:46:47;95990.34;;;21.83;100.00
11038;BME280;5572;49.540;11.932;2023-05-29T07:49:14;95915.28;;;21.24;100.00
11038;BME280;5572;49.540;11.932;2023-05-29T07:51:40;96016.00;;;22.56;100.00
11038;BME280;5572;49.540;11.932;2023-05-29T07:54:07;95919.16;;;21.19;100.00
11038;BME280;5572;49.540;11.932;2023-05-29T07:56:33;96026.44;;;19.95;100.00
11038;BME280;5572;49.540;11.932;2023-05-29T07:59:02;96040.81;;;22.23;100.00
11038;BME280;5572;49.540;11.932;2023-05-29T08:01:28;95881.00;;;20.88;100.00
11038;BME280;5572;49.540;11.932;2023-05-29T08:03:55;95738.03;;;23.05;100.00
11038;BME280;5572;49.540;11.932;2023-05-29T08:06:21;95737.91;;;22.87;100.00
11038;BME280;5572;49.540;11.932;2023-05-29T08:08:48;95747.44;;;23.04;100.00
11038;BME280;5572;49.540;11.932;2023-05-29T08:11:15;95830.63;;;22.56;100.00
11038;BME280;5572;49.540;11.932;2023-05-29T08:13:41;95848.47;;;21.85;100.00
11038;BME280;5572;49.540;11.932;2023-05-29T08:16:09;95934.13;;;20.96;100.00
11038;BME280;5572;49.540;11.932;2023-05-29T08:18:36;95738.25;;;22.82;100.00
11038;BME280;5572;49.540;11.932;2023-05-29T08:21:03;95839.13;;;21.57;100.00
11038;BME280;5572;49.540;11.932;2023-05-29T08:23:30;96011.50;;;22.38;100.00
11038;BME280;5572;49.540;11.932;2023-05-29T08:25:57;95798.31;;;23.13;100.00
11038;BME280;5572;49.540;11.932;2023-05-29T08:28:23;95869.09;;;21.36;100.00
11038;BME280;5572;49.540;11.932;2023-05-29T08:30:51;95813.06;;;23.59;100.00
11038;BME280;5572;49.540;11.932;2023-05-29T08:33:20;95875.06;;;21.12;100.00
11038;BME280;5572;49.540;11.932;2023-05-29T08:35:46;95866.00;;;22.10;100.00
11038;BME280;5572;49.540;11.932;2023-05-29T08:38:13;95787.63;;;22.41;100.00
11038;BME280;5572;49.540;11.932;2023-05-29T08:40:40;95895.09;;;22.44;100.00
11038;BME280;5572;49.540;11.932;2023-05-29T08:43:12;95845.09;;;22.96;100.00
11038;BME280;5572;49.540;11.932;2023-05-29T08:45:42;95868.00;;;22.53;100.00
11038;BME280;5572;49.540;11.932;2023-05-29T08:48:09;95893.38;;;21.96;100.00
11038;BME280;5572;49.540;11.932;2023-05-29T08:50:43;95752.03;;;22.75;100.00
11038;BME280;5572;49.540;11.932;2023-05-29T08:53:10;95840.88;;;24.53;100.00
11038;BME280;5572;49.540;11.932;2023-05-29T08:55:37;95950.66;;;23.60;100.00
11038;BME280;5572;49.540;11.932;2023-05-29T08:58:04;95857.56;;;23.44;100.00
11038;BME280;5572;49.540;11.932;2023-05-29T09:00:31;95938.53;;;23.11;100.00
11038;BME280;5572;49.540;11.932;2023-05-29T09:02:58;95887.47;;;23.35;100.00
11038;BME280;5572;49.540;11.932;2023-05-29T09:05:26;95850.22;;;23.79;100.00
11038;BME280;5572;49.540;11.932;2023-05-29T09:07:54;95826.47;;;23.60;100.00
11038;BME280;5572;49.540;11.932;2023-05-29T09:10:20;95804.09;;;22.34;100.00
11038;BME280;5572;49.540;11.932;2023-05-29T09:12:48;95863.38;;;22.64;100.00
11038;BME280;5572;49.540;11.932;2023-05-29T09:15:19;95847.13;;;22.09;100.00
11038;BME280;5572;49.540;11.932;2023-05-29T09:17:50;95747.44;;;21.86;100.00
11038;BME280;5572;49.540;11.932;2023-05-29T09:20:17;95685.56;;;22.20;100.00
11038;BME280;5572;49.540;11.932;2023-05-29T09:22:54;95696.22;;;22.28;100.00
11038;BME280;5572;49.540;11.932;2023-05-29T09:25:22;95727.44;;;23.31;100.00
11038;BME280;5572;49.540;11.932;2023-05-29T09:27:51;95805.25;;;22.90;100.00
11038;BME280;5572;49.540;11.932;2023-05-29T09:30:31;95850.84;;;22.77;100.00
11038;BME280;5572;49.540;11.932;2023-05-29T09:32:59;95679.97;;;22.09;100.00
11038;BME280;5572;49.540;11.932;2023-05-29T09:35:26;95619.06;;;24.07;100.00
11038;BME280;5572;49.540;11.932;2023-05-29T09:37:54;95332.56;;;25.16;100.00
11038;BME280;5572;49.540;11.932;2023-05-29T09:40:21;95586.91;;;24.72;100.00
11038;BME280;5572;49.540;11.932;2023-05-29T09:42:47;95625.38;;;23.24;100.00
11038;BME280;5572;49.540;11.932;2023-05-29T09:45:17;95586.41;;;23.50;100.00
11038;BME280;5572;49.540;11.932;2023-05-29T09:47:44;95393.16;;;23.67;100.00
11038;BME280;5572;49.540;11.932;2023-05-29T09:50:18;95571.41;;;23.20;100.00
11038;BME280;5572;49.540;11.932;2023-05-29T09:52:45;95428.91;;;24.09;100.00
11038;BME280;5572;49.540;11.932;2023-05-29T09:55:13;95472.44;;;23.67;100.00
11038;BME280;5572;49.540;11.932;2023-05-29T09:57:44;95518.94;;;23.68;100.00
11038;BME280;5572;49.540;11.932;2023-05-29T10:00:13;95614.75;;;24.10;100.00
11038;BME280;5572;49.540;11.932;2023-05-29T10:02:40;95601.34;;;23.59;100.00
11038;BME280;5572;49.540;11.932;2023-05-29T10:05:06;95519.75;;;23.79;100.00
11038;BME280;5572;49.540;11.932;2023-05-29T10:07:35;95594.16;;;22.75;100.00
11038;BME280;5572;49.540;11.932;2023-05-29T10:10:04;95549.66;;;24.02;100.00
11038;BME280;5572;49.540;11.932;2023-05-29T10:12:36;95607.69;;;23.39;100.00
11038;BME280;5572;49.540;11.932;2023-05-29T10:15:07;95578.31;;;22.48;100.00
11038;BME280;5572;49.540;11.932;2023-05-29T10:17:38;95470.31;;;24.20;100.00
11038;BME280;5572;49.540;11.932;2023-05-29T10:20:07;95610.03;;;23.30;100.00
11038;BME280;5572;49.540;11.932;2023-05-29T10:22:39;95433.06;;;24.38;100.00
11038;BME280;5572;49.540;11.932;2023-05-29T10:25:08;95316.97;;;24.92;100.00
11038;BME280;5572;49.540;11.932;2023-05-29T10:27:37;95574.28;;;24.68;100.00
11038;BME280;5572;49.540;11.932;2023-05-29T10:30:08;95492.31;;;24.33;100.00
11038;BME280;5572;49.540;11.932;2023-05-29T10:32:43;95440.94;;;23.54;100.00
11038;BME280;5572;49.540;11.932;2023-05-29T10:35:16;95416.81;;;25.01;100.00
11038;BME280;5572;49.540;11.932;2023-05-29T10:37:49;95361.00;;;25.17;100.00
11038;BME280;5572;49.540;11.932;2023-05-29T10:40:22;95496.13;;;23.50;100.00
11038;BME280;5572;49.540;11.932;2023-05-29T10:42:53;95332.34;;;23.99;100.00
11038;BME280;5572;49.540;11.932;2023-05-29T10:45:48;95421.22;;;24.44;100.00
11038;BME280;5572;49.540;11.932;2023-05-29T10:48:38;95449.56;;;23.66;100.00
11038;BME280;5572;49.540;11.932;2023-05-29T10:51:06;95320.56;;;24.86;100.00
11038;BME280;5572;49.540;11.932;2023-05-29T10:53:33;95320.69;;;23.53;100.00
11038;BME280;5572;49.540;11.932;2023-05-29T10:56:08;95353.75;;;23.67;100.00
11038;BME280;5572;49.540;11.932;2023-05-29T10:58:37;95551.53;;;25.15;100.00
11038;BME280;5572;49.540;11.932;2023-05-29T11:01:08;95366.19;;;25.08;100.00
11038;BME280;5572;49.540;11.932;2023-05-29T11:03:34;95248.31;;;24.43;100.00
11038;BME280;5572;49.540;11.932;2023-05-29T11:06:03;95211.13;;;24.55;100.00
11038;BME280;5572;49.540;11.932;2023-05-29T11:08:33;95394.78;;;23.75;100.00
11038;BME280;5572;49.540;11.932;2023-05-29T11:11:00;95298.34;;;24.09;100.00
11038;BME280;5572;49.540;11.932;2023-05-29T11:13:32;95220.88;;;24.23;100.00
11038;BME280;5572;49.540;11.932;2023-05-29T11:16:19;95283.47;;;23.92;100.00
11038;BME280;5572;49.540;11.932;2023-05-29T11:18:47;95218.63;;;24.54;100.00
11038;BME280;5572;49.540;11.932;2023-05-29T11:21:29;95029.69;;;25.73;100.00
11038;BME280;5572;49.540;11.932;2023-05-29T11:23:57;95059.66;;;25.55;100.00
11038;BME280;5572;49.540;11.932;2023-05-29T11:26:26;95274.19;;;24.20;100.00
11038;BME280;5572;49.540;11.932;2023-05-29T11:28:53;95318.44;;;24.63;100.00
11038;BME280;5572;49.540;11.932;2023-05-29T11:31:21;95161.00;;;24.86;100.00
11038;BME280;5572;49.540;11.932;2023-05-29T11:33:50;95019.88;;;25.46;100.00
11038;BME280;5572;49.540;11.932;2023-05-29T11:36:17;95074.50;;;25.65;100.00
11038;BME280;5572;49.540;11.932;2023-05-29T11:38:44;94908.69;;;25.93;100.00
11038;BME280;5572;49.540;11.932;2023-05-29T11:41:11;95181.84;;;26.07;100.00
11038;BME280;5572;49.540;11.932;2023-05-29T11:43:38;94980.16;;;25.98;100.00
11038;BME280;5572;49.540;11.932;2023-05-29T11:46:15;95132.06;;;24.64;100.00
11038;BME280;5572;49.540;11.932;2023-05-29T11:48:45;95105.09;;;25.02;100.00
11038;BME280;5572;49.540;11.932;2023-05-29T11:51:13;94987.56;;;25.85;100.00
11038;BME280;5572;49.540;11.932;2023-05-29T11:53:40;94795.69;;;27.00;100.00
11038;BME280;5572;49.540;11.932;2023-05-29T11:56:08;95095.88;;;27.46;100.00
11038;BME280;5572;49.540;11.932;2023-05-29T11:58:36;95160.38;;;26.11;100.00
11038;BME280;5572;49.540;11.932;2023-05-29T12:01:02;95178.97;;;25.01;100.00
11038;BME280;5572;49.540;11.932;2023-05-29T12:03:29;95172.31;;;26.30;100.00
11038;BME280;5572;49.540;11.932;2023-05-29T12:05:56;95104.00;;;26.82;100.00
11038;BME280;5572;49.540;11.932;2023-05-29T12:08:23;95158.56;;;26.01;100.00
11038;BME280;5572;49.540;11.932;2023-05-29T12:10:52;95037.13;;;26.61;100.00
11038;BME280;5572;49.540;11.932;2023-05-29T12:13:19;94872.50;;;26.00;100.00
11038;BME280;5572;49.540;11.932;2023-05-29T12:15:47;94990.41;;;25.10;100.00
11038;BME280;5572;49.540;11.932;2023-05-29T12:18:15;94758.00;;;25.71;100.00
11038;BME280;5572;49.540;11.932;2023-05-29T12:20:41;94888.59;;;25.66;100.00
11038;BME280;5572;49.540;11.932;2023-05-29T12:23:09;94754.88;;;26.05;100.00
11038;BME280;5572;49.540;11.932;2023-05-29T12:25:37;94853.75;;;25.30;100.00
11038;BME280;5572;49.540;11.932;2023-05-29T12:28:04;94895.97;;;26.31;100.00
11038;BME280;5572;49.540;11.932;2023-05-29T12:30:36;94667.81;;;27.10;100.00
11038;BME280;5572;49.540;11.932;2023-05-29T12:33:02;94879.00;;;25.32;100.00
11038;BME280;5572;49.540;11.932;2023-05-29T12:35:31;94709.53;;;25.63;100.00
11038;BME280;5572;49.540;11.932;2023-05-29T12:38:01;94840.66;;;24.88;100.00
11038;BME280;5572;49.540;11.932;2023-05-29T12:40:30;95104.34;;;25.80;100.00
11038;BME280;5572;49.540;11.932;2023-05-29T12:43:00;94985.69;;;25.56;100.00
11038;BME280;5572;49.540;11.932;2023-05-29T12:45:29;94992.63;;;26.10;100.00
11038;BME280;5572;49.540;11.932;2023-05-29T12:47:58;94967.75;;;26.06;100.00
11038;BME280;5572;49.540;11.932;2023-05-29T12:50:27;94939.88;;;26.32;100.00
11038;BME280;5572;49.540;11.932;2023-05-29T12:52:58;94806.78;;;25.46;100.00
11038;BME280;5572;49.540;11.932;2023-05-29T12:55:25;94833.56;;;26.07;100.00
11038;BME280;5572;49.540;11.932;2023-05-29T12:57:54;95189.38;;;26.52;100.00
11038;BME280;5572;49.540;11.932;2023-05-29T13:00:21;95146.03;;;26.81;100.00